Time;durP1;ratioP1;P1;durP2;ratioP2;P2;SDS_P1;SDS_P2;PMS_P1;PMS_P2;Temp;Humidity;BMP_temperature;BMP_pressure;BME280_temperature;BME280_humidity;BME280_pressure;Samples;Min_cycle;Max_cycle;Signal;HPM_P1;HPM_P2
2023/01/05 00:00:17;;;;;;;2.45;1.52;;;;;;;;;;4850987;29;20033;-60
2023/01/05 00:02:42;;;;;;;1.63;1.20;;;;;;;;;;4880883;29;20034;-60
2023/01/05 00:05:08;;;;;;;2.03;1.00;;;;;;;;;;4851291;29;20355;-60
2023/01/05 00:07:33;;;;;;;3.13;1.10;;;;;;;;;;4851190;29;20114;-59
2023/01/05 00:09:58;;;;;;;3.33;1.30;;;;;;;;;;4850350;29;20049;-61
2023/01/05 00:23:20;;;;;;;1.70;1.10;;;;;;;;;;4850419;29;20041;-60
2023/01/05 00:25:45;;;;;;;2.05;1.10;;;;;;;;;;4851591;29;20190;-59
2023/01/05 00:28:11;;;;;;;3.53;1.42;;;;;;;;;;4846492;29;20097;-61
2023/01/05 00:30:40;;;;;;;1.23;1.00;;;;;;;;;;4848199;29;20038;-60
2023/01/05 00:33:13;;;;;;;1.17;1.08;;;;;;;;;;4847982;29;20037;-60
2023/01/05 00:35:39;;;;;;;3.75;1.13;;;;;;;;;;4850605;29;20034;-60
2023/01/05 00:38:04;;;;;;;1.05;1.05;;;;;;;;;;4851127;29;20029;-60
2023/01/05 00:40:30;;;;;;;2.90;1.10;;;;;;;;;;4849741;29;20037;-60
2023/01/05 00:42:55;;;;;;;0.90;0.90;;;;;;;;;;4851075;29;20042;-60
2023/01/05 00:45:21;;;;;;;1.58;1.10;;;;;;;;;;4875809;29;20124;-60
2023/01/05 00:47:53;;;;;;;0.90;0.90;;;;;;;;;;4876911;29;20120;-60
2023/01/05 00:50:20;;;;;;;0.77;0.77;;;;;;;;;;4848939;29;20037;-59
2023/01/05 00:52:45;;;;;;;1.65;1.15;;;;;;;;;;4880580;29;20044;-61
2023/01/05 00:55:10;;;;;;;1.27;1.10;;;;;;;;;;4880174;29;20041;-60
2023/01/05 00:57:36;;;;;;;2.38;0.98;;;;;;;;;;4878230;29;20037;-60
2023/01/05 01:00:03;;;;;;;1.45;0.90;;;;;;;;;;4876211;29;20179;-60
2023/01/05 01:02:29;;;;;;;0.90;0.90;;;;;;;;;;4878101;29;21468;-60
2023/01/05 01:04:54;;;;;;;1.15;1.05;;;;;;;;;;4849270;29;20101;-59
2023/01/05 01:07:19;;;;;;;1.10;1.00;;;;;;;;;;4875573;29;20040;-59
2023/01/05 01:09:45;;;;;;;1.15;0.95;;;;;;;;;;4848185;29;20044;-61
2023/01/05 01:12:10;;;;;;;1.52;1.10;;;;;;;;;;4848840;29;20044;-60
2023/01/05 01:14:36;;;;;;;1.38;1.27;;;;;;;;;;4850744;29;20037;-60
2023/01/05 01:17:01;;;;;;;0.60;0.60;;;;;;;;;;4877213;29;20447;-60
2023/01/05 01:19:27;;;;;;;1.33;0.98;;;;;;;;;;4849047;29;20116;-60
2023/01/05 01:21:52;;;;;;;0.80;0.80;;;;;;;;;;4876250;29;20061;-60
2023/01/05 01:24:22;;;;;;;0.90;0.85;;;;;;;;;;4879392;29;20041;-60
2023/01/05 01:26:47;;;;;;;1.20;1.10;;;;;;;;;;4847835;29;20263;-60
2023/01/05 01:29:13;;;;;;;1.95;0.80;;;;;;;;;;4851037;29;20350;-61
2023/01/05 01:31:39;;;;;;;1.35;0.90;;;;;;;;;;4879447;29;20049;-60
2023/01/05 01:34:04;;;;;;;0.80;0.80;;;;;;;;;;4879049;29;20046;-61
2023/01/05 01:36:30;;;;;;;0.80;0.80;;;;;;;;;;4880026;29;20064;-60
2023/01/05 01:38:58;;;;;;;1.70;0.90;;;;;;;;;;4878625;29;20145;-60
2023/01/05 01:41:23;;;;;;;1.10;0.90;;;;;;;;;;4878751;29;20059;-61
2023/01/05 01:43:52;;;;;;;0.70;0.70;;;;;;;;;;4878089;29;20595;-60
2023/01/05 01:46:20;;;;;;;0.70;0.70;;;;;;;;;;4877602;29;20041;-60
2023/01/05 01:48:48;;;;;;;4.35;1.00;;;;;;;;;;4876398;29;20085;-59
2023/01/05 01:51:17;;;;;;;0.90;0.90;;;;;;;;;;4850128;29;20148;-60
2023/01/05 01:53:45;;;;;;;0.63;0.63;;;;;;;;;;4876859;29;20029;-59
2023/01/05 01:56:13;;;;;;;1.55;0.90;;;;;;;;;;4878126;29;20132;-60
2023/01/05 01:58:38;;;;;;;1.05;0.95;;;;;;;;;;4880805;29;20069;-60
2023/01/05 02:01:04;;;;;;;0.85;0.85;;;;;;;;;;4877298;29;20323;-60
2023/01/05 02:03:29;;;;;;;0.70;0.70;;;;;;;;;;4876855;29;20098;-59
2023/01/05 02:05:55;;;;;;;0.85;0.85;;;;;;;;;;4879178;29;20061;-60
2023/01/05 02:08:24;;;;;;;0.70;0.70;;;;;;;;;;4849880;29;20045;-59
2023/01/05 02:10:50;;;;;;;1.02;0.70;;;;;;;;;;4862503;29;20034;-59
2023/01/05 02:13:19;;;;;;;0.80;0.80;;;;;;;;;;4877318;29;20037;-60
2023/01/05 02:15:47;;;;;;;0.85;0.80;;;;;;;;;;4875799;29;20064;-60
2023/01/05 02:18:19;;;;;;;0.75;0.75;;;;;;;;;;4878696;29;20124;-60
2023/01/05 02:21:03;;;;;;;1.65;0.90;;;;;;;;;;4876741;29;20121;-61
2023/01/05 02:23:32;;;;;;;0.63;0.63;;;;;;;;;;4877868;29;20152;-60
2023/01/05 02:26:10;;;;;;;0.80;0.80;;;;;;;;;;4879540;29;20395;-60
2023/01/05 02:28:57;;;;;;;1.13;0.80;;;;;;;;;;4876378;29;20470;-60
2023/01/05 02:31:33;;;;;;;0.70;0.70;;;;;;;;;;4847000;29;20037;-60
2023/01/05 02:34:07;;;;;;;0.80;0.80;;;;;;;;;;4847892;29;20060;-59
2023/01/05 02:36:35;;;;;;;0.70;0.70;;;;;;;;;;4876340;29;20096;-60
2023/01/05 02:39:15;;;;;;;1.05;0.80;;;;;;;;;;4858319;29;20038;-60
2023/01/05 02:42:02;;;;;;;1.10;0.90;;;;;;;;;;4877464;29;20036;-60
2023/01/05 02:44:29;;;;;;;0.80;0.80;;;;;;;;;;4876772;29;20044;-60
2023/01/05 02:46:59;;;;;;;0.90;0.90;;;;;;;;;;4848208;29;20073;-59
2023/01/05 02:49:25;;;;;;;0.80;0.80;;;;;;;;;;4876614;29;20041;-59
2023/01/05 02:51:54;;;;;;;0.90;0.90;;;;;;;;;;4844780;29;20105;-59
2023/01/05 02:54:23;;;;;;;0.70;0.70;;;;;;;;;;4875999;29;20156;-61
2023/01/05 02:56:58;;;;;;;0.82;0.82;;;;;;;;;;4878063;29;20458;-59
2023/01/05 02:59:27;;;;;;;0.70;0.70;;;;;;;;;;4876945;29;20036;-60
2023/01/05 03:01:58;;;;;;;1.02;0.90;;;;;;;;;;4877271;29;20041;-60
2023/01/05 03:04:30;;;;;;;0.88;0.88;;;;;;;;;;4844691;29;20048;-62
2023/01/05 03:07:05;;;;;;;2.47;1.00;;;;;;;;;;4877214;29;20034;-60
2023/01/05 03:09:35;;;;;;;1.38;0.82;;;;;;;;;;4876457;29;20068;-60
2023/01/05 03:15:15;;;;;;;0.80;0.80;;;;;;;;;;4845975;29;20042;-59
2023/01/05 03:17:43;;;;;;;0.73;0.73;;;;;;;;;;4847447;29;20038;-60
2023/01/05 03:20:11;;;;;;;1.75;0.80;;;;;;;;;;4848621;29;20036;-60
2023/01/05 03:36:44;;;;;;;0.80;0.80;;;;;;;;;;4846643;29;20072;-61
2023/01/05 03:39:11;;;;;;;0.90;0.90;;;;;;;;;;4876559;29;20513;-59
2023/01/05 03:41:37;;;;;;;;;;;;;;;;;;4876080;29;20030;-59
2023/01/05 03:44:02;;;;;;;1.00;0.90;;;;;;;;;;4879522;29;19916;-59
2023/01/05 03:46:31;;;;;;;0.82;0.82;;;;;;;;;;4879852;29;20861;-59
2023/01/05 03:48:56;;;;;;;0.90;0.90;;;;;;;;;;4852578;29;20469;-60
2023/01/05 03:51:22;;;;;;;1.77;1.00;;;;;;;;;;4880679;29;20089;-61
2023/01/05 03:53:48;;;;;;;0.93;0.90;;;;;;;;;;4884331;29;20034;-60
2023/01/05 03:56:13;;;;;;;0.77;0.77;;;;;;;;;;4880902;29;20075;-60
2023/01/05 03:58:39;;;;;;;0.95;0.93;;;;;;;;;;4882713;29;20030;-59
2023/01/05 04:01:04;;;;;;;3.15;1.33;;;;;;;;;;4881962;29;20049;-59
2023/01/05 04:03:30;;;;;;;1.05;1.00;;;;;;;;;;4851697;29;20560;-61
2023/01/05 04:05:56;;;;;;;0.90;0.88;;;;;;;;;;4853230;29;20032;-59
2023/01/05 04:08:25;;;;;;;0.90;0.77;;;;;;;;;;4883441;29;20033;-60
2023/01/05 04:10:52;;;;;;;2.65;1.67;;;;;;;;;;4882613;29;20057;-60
2023/01/05 04:13:18;;;;;;;1.05;0.90;;;;;;;;;;4849365;29;20136;-61
2023/01/05 04:15:44;;;;;;;0.88;0.88;;;;;;;;;;4883910;29;20052;-60
2023/01/05 04:18:10;;;;;;;1.00;0.90;;;;;;;;;;4856320;29;20037;-61
2023/01/05 04:20:35;;;;;;;0.95;0.90;;;;;;;;;;4881773;29;20041;-60
2023/01/05 04:23:01;;;;;;;7.35;1.25;;;;;;;;;;4855047;29;20533;-60
2023/01/05 04:25:32;;;;;;;4.82;1.33;;;;;;;;;;4882627;29;20437;-60
2023/01/05 04:28:09;;;;;;;1.10;1.00;;;;;;;;;;4853893;29;20172;-61
2023/01/05 04:30:35;;;;;;;5.35;1.60;;;;;;;;;;4879014;29;20564;-61
2023/01/05 04:33:02;;;;;;;0.80;0.80;;;;;;;;;;4852579;29;20124;-60
2023/01/05 04:35:28;;;;;;;0.90;0.90;;;;;;;;;;4848928;29;20212;-61
2023/01/05 04:37:54;;;;;;;0.70;0.70;;;;;;;;;;4881338;29;20041;-60
2023/01/05 04:40:19;;;;;;;1.65;0.63;;;;;;;;;;4852471;29;20495;-59
2023/01/05 04:42:51;;;;;;;0.70;0.70;;;;;;;;;;4882055;29;20040;-60
2023/01/05 04:45:16;;;;;;;0.60;0.60;;;;;;;;;;4852666;29;20049;-60
2023/01/05 04:47:43;;;;;;;0.98;0.95;;;;;;;;;;4852001;29;20030;-60
2023/01/05 04:50:10;;;;;;;;;;;;;;;;;;4880658;29;20045;-60
2023/01/05 04:52:36;;;;;;;1.57;1.17;;;;;;;;;;4882037;29;20302;-60
2023/01/05 04:55:02;;;;;;;1.48;1.10;;;;;;;;;;4880218;29;20516;-60
2023/01/05 04:57:28;;;;;;;0.77;0.77;;;;;;;;;;4884516;29;20071;-59
2023/01/05 04:59:54;;;;;;;1.30;0.98;;;;;;;;;;4848646;29;20478;-59
2023/01/05 05:02:19;;;;;;;0.93;0.80;;;;;;;;;;4867218;29;20042;-60
2023/01/05 05:04:44;;;;;;;0.80;0.80;;;;;;;;;;4856282;29;20084;-60
2023/01/05 05:07:10;;;;;;;0.77;0.77;;;;;;;;;;4858568;29;20032;-60
2023/01/05 05:09:36;;;;;;;0.60;0.60;;;;;;;;;;4879918;29;20086;-59
2023/01/05 05:12:01;;;;;;;0.70;0.70;;;;;;;;;;4881462;29;20034;-60
2023/01/05 05:14:30;;;;;;;0.60;0.60;;;;;;;;;;4882461;29;20033;-60
2023/01/05 05:16:57;;;;;;;0.82;0.80;;;;;;;;;;4881404;29;20081;-59
2023/01/05 05:19:23;;;;;;;1.52;1.10;;;;;;;;;;4880107;29;21710;-59
2023/01/05 05:21:48;;;;;;;0.82;0.82;;;;;;;;;;4854536;29;20039;-60
2023/01/05 05:24:13;;;;;;;0.60;0.60;;;;;;;;;;4880586;29;20060;-59
2023/01/05 05:26:42;;;;;;;0.60;0.60;;;;;;;;;;4880490;29;20029;-59
2023/01/05 05:29:07;;;;;;;0.85;0.85;;;;;;;;;;4852339;29;20037;-59
2023/01/05 05:31:33;;;;;;;0.60;0.60;;;;;;;;;;4854549;29;20061;-59
2023/01/05 05:33:58;;;;;;;0.70;0.70;;;;;;;;;;4865920;29;20074;-60
2023/01/05 05:36:23;;;;;;;0.80;0.80;;;;;;;;;;4853001;29;20104;-57
2023/01/05 05:38:49;;;;;;;2.28;1.00;;;;;;;;;;4851207;29;20072;-55
2023/01/05 05:41:14;;;;;;;0.80;0.80;;;;;;;;;;4855298;29;20048;-57
2023/01/05 05:43:39;;;;;;;0.90;0.85;;;;;;;;;;4854867;29;20046;-56
2023/01/05 05:46:05;;;;;;;0.95;0.90;;;;;;;;;;4851892;29;20041;-55
2023/01/05 05:48:30;;;;;;;0.77;0.77;;;;;;;;;;4851622;29;20123;-54
2023/01/05 05:50:55;;;;;;;0.90;0.90;;;;;;;;;;4851601;29;20037;-52
2023/01/05 05:53:21;;;;;;;2.05;1.00;;;;;;;;;;4848441;29;20113;-57
2023/01/05 05:55:47;;;;;;;1.02;0.90;;;;;;;;;;4856063;29;20037;-54
2023/01/05 05:58:12;;;;;;;0.90;0.90;;;;;;;;;;4850218;29;20037;-55
2023/01/05 06:00:37;;;;;;;3.22;1.25;;;;;;;;;;4848451;29;20036;-56
2023/01/05 06:03:03;;;;;;;1.10;1.00;;;;;;;;;;4875839;29;20041;-56
2023/01/05 06:05:29;;;;;;;1.42;1.30;;;;;;;;;;4849584;29;20041;-53
2023/01/05 06:07:54;;;;;;;1.40;1.30;;;;;;;;;;4847197;29;20025;-56
2023/01/05 06:10:19;;;;;;;3.00;1.48;;;;;;;;;;4844318;29;20494;-51
2023/01/05 06:12:45;;;;;;;1.85;1.30;;;;;;;;;;4848557;29;20558;-50
2023/01/05 06:15:10;;;;;;;1.92;1.33;;;;;;;;;;4852150;29;20416;-52
2023/01/05 06:17:35;;;;;;;2.05;1.40;;;;;;;;;;4853317;29;20041;-52
2023/01/05 06:20:01;;;;;;;3.33;1.55;;;;;;;;;;4852278;29;20038;-51
2023/01/05 06:22:26;;;;;;;3.90;1.85;;;;;;;;;;4851735;29;20036;-51
2023/01/05 06:24:51;;;;;;;2.63;1.70;;;;;;;;;;4877099;29;20450;-56
2023/01/05 06:27:17;;;;;;;4.05;2.10;;;;;;;;;;4852899;29;20128;-53
2023/01/05 06:29:42;;;;;;;2.45;1.70;;;;;;;;;;4849457;29;20405;-57
2023/01/05 06:32:07;;;;;;;4.43;1.50;;;;;;;;;;4848513;29;20038;-54
2023/01/05 06:34:33;;;;;;;3.03;1.80;;;;;;;;;;4849377;29;20040;-53
2023/01/05 06:36:58;;;;;;;4.18;1.90;;;;;;;;;;4844952;29;20046;-56
2023/01/05 06:39:23;;;;;;;3.67;1.83;;;;;;;;;;4850739;29;20448;-53
2023/01/05 06:41:48;;;;;;;6.57;2.33;;;;;;;;;;4849794;29;20037;-50
2023/01/05 06:44:14;;;;;;;12.52;2.35;;;;;;;;;;4850502;29;20068;-57
2023/01/05 06:46:39;;;;;;;6.15;2.60;;;;;;;;;;4849160;29;20104;-50
2023/01/05 06:49:05;;;;;;;7.05;2.03;;;;;;;;;;4848505;29;20095;-54
2023/01/05 06:51:30;;;;;;;9.23;3.08;;;;;;;;;;4847390;29;20421;-52
2023/01/05 06:53:55;;;;;;;13.18;2.20;;;;;;;;;;4845947;29;20093;-51
2023/01/05 06:56:21;;;;;;;9.48;2.50;;;;;;;;;;4848319;29;20034;-53
2023/01/05 06:58:46;;;;;;;9.88;2.25;;;;;;;;;;4848300;29;20045;-52
2023/01/05 07:01:11;;;;;;;12.18;2.65;;;;;;;;;;4875381;29;20042;-56
2023/01/05 07:03:36;;;;;;;9.60;2.35;;;;;;;;;;4847371;29;20481;-53
2023/01/05 07:06:03;;;;;;;6.40;2.58;;;;;;;;;;4848034;29;20044;-52
2023/01/05 07:08:28;;;;;;;6.15;2.60;;;;;;;;;;4847624;29;20037;-56
2023/01/05 07:10:53;;;;;;;7.57;2.97;;;;;;;;;;4875851;29;20557;-53
2023/01/05 07:13:19;;;;;;;9.80;3.00;;;;;;;;;;4852426;29;20112;-52
2023/01/05 07:15:44;;;;;;;7.07;2.80;;;;;;;;;;4883344;29;20488;-51
2023/01/05 07:18:10;;;;;;;8.77;3.05;;;;;;;;;;4854472;29;20017;-52
2023/01/05 07:20:37;;;;;;;9.18;2.78;;;;;;;;;;4855056;29;20117;-58
2023/01/05 07:23:02;;;;;;;9.52;3.03;;;;;;;;;;4852662;29;20093;-52
2023/01/05 07:25:30;;;;;;;7.07;2.85;;;;;;;;;;4849380;29;20037;-55
2023/01/05 07:27:55;;;;;;;10.15;3.63;;;;;;;;;;4852124;29;20033;-56
2023/01/05 07:30:21;;;;;;;8.70;2.67;;;;;;;;;;4852204;29;20433;-51
2023/01/05 07:32:46;;;;;;;10.98;2.70;;;;;;;;;;4875810;29;20626;-51
2023/01/05 07:35:11;;;;;;;12.48;3.47;;;;;;;;;;4846150;29;20487;-54
2023/01/05 07:37:37;;;;;;;14.13;3.17;;;;;;;;;;4849667;29;20084;-57
2023/01/05 07:40:03;;;;;;;6.88;2.35;;;;;;;;;;4846850;29;20112;-56
2023/01/05 07:42:29;;;;;;;10.50;3.28;;;;;;;;;;4847324;29;20041;-56
2023/01/05 07:44:55;;;;;;;9.18;2.80;;;;;;;;;;4876891;29;20033;-55
2023/01/05 07:47:21;;;;;;;10.27;3.13;;;;;;;;;;4851760;29;20029;-55
2023/01/05 07:49:46;;;;;;;9.15;2.70;;;;;;;;;;4863989;29;20084;-52
2023/01/05 07:52:12;;;;;;;10.00;3.38;;;;;;;;;;4846614;29;20403;-55
2023/01/05 07:54:37;;;;;;;10.77;3.75;;;;;;;;;;4850642;29;20145;-52
2023/01/05 07:57:02;;;;;;;8.05;3.20;;;;;;;;;;4853050;29;20568;-55
2023/01/05 07:59:28;;;;;;;12.73;3.60;;;;;;;;;;4850599;29;20088;-53
2023/01/05 08:01:53;;;;;;;10.05;3.50;;;;;;;;;;4847798;29;20037;-54
2023/01/05 08:04:18;;;;;;;17.98;3.92;;;;;;;;;;4851661;29;20045;-52
2023/01/05 08:06:44;;;;;;;9.25;3.88;;;;;;;;;;4849261;29;20496;-56
2023/01/05 08:11:53;;;;;;;12.20;3.78;;;;;;;;;;4849620;29;20108;-52
2023/01/05 08:14:18;;;;;;;14.38;3.60;;;;;;;;;;4849638;29;20052;-54
2023/01/05 08:16:43;;;;;;;10.40;3.22;;;;;;;;;;4851005;29;20044;-54
2023/01/05 08:19:09;;;;;;;9.65;3.28;;;;;;;;;;4849799;29;20029;-56
2023/01/05 08:21:34;;;;;;;11.68;3.30;;;;;;;;;;4848381;29;20125;-54
2023/01/05 08:24:00;;;;;;;13.90;4.03;;;;;;;;;;4849084;29;20044;-54
2023/01/05 08:26:25;;;;;;;9.88;3.30;;;;;;;;;;4847297;29;20125;-54
2023/01/05 08:28:51;;;;;;;9.43;3.40;;;;;;;;;;4850385;29;20077;-53
2023/01/05 08:31:16;;;;;;;14.55;4.00;;;;;;;;;;4858205;29;20261;-49
2023/01/05 08:33:41;;;;;;;9.98;3.40;;;;;;;;;;4878622;29;20224;-54
2023/01/05 08:36:08;;;;;;;12.57;3.35;;;;;;;;;;4849857;29;20041;-55
2023/01/05 08:38:33;;;;;;;16.55;3.53;;;;;;;;;;4849910;29;20052;-53
2023/01/05 08:40:59;;;;;;;11.07;2.85;;;;;;;;;;4876553;29;20472;-56
2023/01/05 08:43:24;;;;;;;8.82;2.58;;;;;;;;;;4880719;29;20041;-54
2023/01/05 08:45:52;;;;;;;7.85;2.63;;;;;;;;;;4850183;29;20033;-51
2023/01/05 08:48:18;;;;;;;8.05;2.80;;;;;;;;;;4877600;29;20503;-53
2023/01/05 08:50:43;;;;;;;10.32;2.30;;;;;;;;;;4848446;29;20041;-51
2023/01/05 08:53:11;;;;;;;5.82;2.13;;;;;;;;;;4848530;29;20381;-53
2023/01/05 08:55:36;;;;;;;10.75;2.88;;;;;;;;;;4847864;29;20030;-49
2023/01/05 08:58:01;;;;;;;11.70;2.78;;;;;;;;;;4878024;29;20433;-52
2023/01/05 09:00:27;;;;;;;9.40;2.22;;;;;;;;;;4846829;29;20026;-54
2023/01/05 09:02:52;;;;;;;9.32;2.80;;;;;;;;;;4846798;29;20030;-54
2023/01/05 09:05:17;;;;;;;11.70;2.28;;;;;;;;;;4848453;29;20416;-56
2023/01/05 09:07:43;;;;;;;15.20;2.42;;;;;;;;;;4848082;29;20040;-52
2023/01/05 09:10:09;;;;;;;12.13;2.10;;;;;;;;;;4852463;29;20480;-56
2023/01/05 09:12:35;;;;;;;12.50;2.30;;;;;;;;;;4848579;29;20029;-54
2023/01/05 09:15:00;;;;;;;10.90;2.40;;;;;;;;;;4850158;29;20069;-54
2023/01/05 09:17:26;;;;;;;5.60;1.90;;;;;;;;;;4847392;29;20052;-54
2023/01/05 09:19:51;;;;;;;4.68;1.90;;;;;;;;;;4846747;29;20029;-54
2023/01/05 09:22:17;;;;;;;10.30;2.40;;;;;;;;;;4849611;29;20072;-54
2023/01/05 09:24:42;;;;;;;6.10;2.30;;;;;;;;;;4853527;29;20037;-56
2023/01/05 09:27:07;;;;;;;11.45;2.78;;;;;;;;;;4846465;29;20590;-56
2023/01/05 09:29:33;;;;;;;12.07;2.72;;;;;;;;;;4877166;29;20043;-53
2023/01/05 09:31:58;;;;;;;13.73;2.80;;;;;;;;;;4847698;29;20325;-55
2023/01/05 09:34:23;;;;;;;16.02;3.28;;;;;;;;;;4878764;29;20098;-56
2023/01/05 09:36:49;;;;;;;10.15;2.92;;;;;;;;;;4851075;29;20041;-55
2023/01/05 09:39:14;;;;;;;11.50;2.88;;;;;;;;;;4849243;29;20030;-53
2023/01/05 09:41:43;;;;;;;8.90;2.22;;;;;;;;;;4847724;29;20041;-55
2023/01/05 09:44:19;;;;;;;5.82;2.10;;;;;;;;;;4848092;29;20041;-54
2023/01/05 09:46:46;;;;;;;11.43;2.30;;;;;;;;;;4848317;29;20560;-55
2023/01/05 09:49:12;;;;;;;13.65;2.88;;;;;;;;;;4848323;29;20512;-56
2023/01/05 09:51:38;;;;;;;11.10;2.63;;;;;;;;;;4847341;29;20354;-54
2023/01/05 09:54:03;;;;;;;11.88;3.00;;;;;;;;;;4878127;29;20473;-55
2023/01/05 09:56:30;;;;;;;6.50;2.20;;;;;;;;;;4846055;29;20413;-56
2023/01/05 09:59:02;;;;;;;10.25;2.40;;;;;;;;;;4848880;29;20070;-55
2023/01/05 10:01:30;;;;;;;10.05;2.50;;;;;;;;;;4847981;29;20071;-56
2023/01/05 10:03:55;;;;;;;;;;;;;;;;;;4849775;29;20135;-56
2023/01/05 10:06:23;;;;;;;13.88;2.30;;;;;;;;;;4847649;29;20082;-57
2023/01/05 10:08:50;;;;;;;13.45;3.50;;;;;;;;;;4847182;29;20456;-54
2023/01/05 10:15:01;;;;;;;11.50;2.90;;;;;;;;;;4853797;29;20124;-54
2023/01/05 10:17:27;;;;;;;11.02;2.33;;;;;;;;;;4881911;29;20044;-57
2023/01/05 10:19:53;;;;;;;11.02;2.30;;;;;;;;;;4862577;29;20056;-57
2023/01/05 10:22:18;;;;;;;13.45;2.72;;;;;;;;;;4851704;29;20037;-54
2023/01/05 10:24:50;;;;;;;14.55;2.85;;;;;;;;;;4848548;29;20093;-57
2023/01/05 10:27:20;;;;;;;10.60;1.90;;;;;;;;;;4848535;29;20040;-55
2023/01/05 10:29:47;;;;;;;15.40;2.92;;;;;;;;;;4849231;29;20120;-56
2023/01/05 10:32:29;;;;;;;15.15;2.80;;;;;;;;;;4851096;29;20358;-54
2023/01/05 10:34:57;;;;;;;9.73;2.33;;;;;;;;;;4848370;29;20091;-55
2023/01/05 10:37:23;;;;;;;13.50;2.40;;;;;;;;;;4848874;29;20033;-56
2023/01/05 10:39:55;;;;;;;11.27;2.65;;;;;;;;;;4874851;29;20089;-55
2023/01/05 10:42:36;;;;;;;13.57;2.75;;;;;;;;;;4849143;29;20021;-57
2023/01/05 10:45:02;;;;;;;12.43;2.50;;;;;;;;;;4847733;29;20041;-56
2023/01/05 10:47:30;;;;;;;17.35;3.63;;;;;;;;;;4850763;29;20040;-56
2023/01/05 10:49:55;;;;;;;13.15;2.42;;;;;;;;;;4849337;29;20761;-57
2023/01/05 10:52:21;;;;;;;11.02;2.47;;;;;;;;;;4878833;29;20038;-55
2023/01/05 10:54:52;;;;;;;18.80;2.83;;;;;;;;;;4853066;29;20041;-58
2023/01/05 10:57:30;;;;;;;13.95;3.20;;;;;;;;;;4851409;29;20053;-56
2023/01/05 11:00:04;;;;;;;10.27;2.50;;;;;;;;;;4852386;29;20114;-55
2023/01/05 11:02:31;;;;;;;24.17;3.58;;;;;;;;;;4848239;29;20045;-56
2023/01/05 11:05:01;;;;;;;12.82;3.00;;;;;;;;;;4857032;29;20177;-56
2023/01/05 11:07:26;;;;;;;22.48;3.20;;;;;;;;;;4853509;29;20096;-57
2023/01/05 11:09:52;;;;;;;14.80;2.95;;;;;;;;;;4851957;29;20025;-55
2023/01/05 11:12:19;;;;;;;15.07;3.10;;;;;;;;;;4855751;29;20064;-56
2023/01/05 11:14:47;;;;;;;15.32;3.00;;;;;;;;;;4854021;29;20034;-56
2023/01/05 11:17:15;;;;;;;12.57;2.92;;;;;;;;;;4852987;29;20042;-52
2023/01/05 11:19:43;;;;;;;16.27;3.25;;;;;;;;;;4880783;29;20773;-57
2023/01/05 11:22:27;;;;;;;17.90;2.63;;;;;;;;;;4858602;29;20053;-54
2023/01/05 11:24:53;;;;;;;12.88;3.00;;;;;;;;;;4859289;29;20041;-57
2023/01/05 11:27:18;;;;;;;16.13;2.83;;;;;;;;;;4848087;29;20037;-57
2023/01/05 11:29:43;;;;;;;20.55;2.95;;;;;;;;;;4855474;29;20073;-58
2023/01/05 11:32:10;;;;;;;14.40;3.10;;;;;;;;;;4852990;29;20492;-56
2023/01/05 11:34:44;;;;;;;13.95;2.75;;;;;;;;;;4848558;29;20134;-57
2023/01/05 11:37:16;;;;;;;13.13;2.90;;;;;;;;;;4853000;29;20033;-57
2023/01/05 11:39:48;;;;;;;18.52;3.20;;;;;;;;;;4853360;29;20033;-57
2023/01/05 11:42:14;;;;;;;17.73;3.17;;;;;;;;;;4847481;29;20061;-58
2023/01/05 11:44:44;;;;;;;15.57;3.15;;;;;;;;;;4849663;29;20192;-58
2023/01/05 11:47:17;;;;;;;16.98;2.85;;;;;;;;;;4877785;29;20038;-58
2023/01/05 11:49:42;;;;;;;10.73;2.88;;;;;;;;;;4850168;29;20439;-58
2023/01/05 11:52:24;;;;;;;14.43;3.95;;;;;;;;;;4849388;29;20037;-59
2023/01/05 11:54:50;;;;;;;17.35;2.80;;;;;;;;;;4851249;29;20049;-59
2023/01/05 11:57:16;;;;;;;16.85;2.72;;;;;;;;;;4848362;29;20065;-58
2023/01/05 11:59:42;;;;;;;15.35;2.85;;;;;;;;;;4850278;29;20112;-59
2023/01/05 12:02:27;;;;;;;14.68;3.00;;;;;;;;;;4877688;29;20047;-58
2023/01/05 12:04:58;;;;;;;21.67;5.38;;;;;;;;;;4847708;29;20045;-59
2023/01/05 12:07:33;;;;;;;19.90;3.28;;;;;;;;;;4850513;29;20025;-58
2023/01/05 12:10:11;;;;;;;13.90;3.67;;;;;;;;;;4848739;29;20164;-59
2023/01/05 12:12:45;;;;;;;17.05;2.92;;;;;;;;;;4847570;29;20335;-59
2023/01/05 12:15:36;;;;;;;16.98;3.33;;;;;;;;;;4848208;29;20510;-56
2023/01/05 12:18:11;;;;;;;19.55;3.40;;;;;;;;;;4850285;29;20053;-58
2023/01/05 12:20:48;;;;;;;15.43;3.00;;;;;;;;;;4849698;29;20030;-59
2023/01/05 12:23:32;;;;;;;12.48;3.03;;;;;;;;;;4846155;29;20537;-61
2023/01/05 12:25:57;;;;;;;14.15;2.88;;;;;;;;;;4846504;29;20178;-57
2023/01/05 12:28:29;;;;;;;14.80;3.13;;;;;;;;;;4849297;29;20124;-58
2023/01/05 12:31:02;;;;;;;22.02;4.03;;;;;;;;;;4850333;29;20068;-57
2023/01/05 12:33:27;;;;;;;18.80;3.20;;;;;;;;;;4849769;29;20057;-59
2023/01/05 12:36:11;;;;;;;18.70;3.17;;;;;;;;;;4849767;29;20041;-58
2023/01/05 12:38:39;;;;;;;15.07;2.60;;;;;;;;;;4848199;29;20096;-59
2023/01/05 12:41:23;;;;;;;13.02;2.78;;;;;;;;;;4849152;29;20492;-57
2023/01/05 12:43:51;;;;;;;17.50;3.05;;;;;;;;;;4847770;29;20089;-58
2023/01/05 12:46:31;;;;;;;17.60;3.78;;;;;;;;;;4850351;29;20468;-58
2023/01/05 12:48:58;;;;;;;14.18;2.92;;;;;;;;;;4847718;29;20409;-58
2023/01/05 12:51:27;;;;;;;21.33;3.33;;;;;;;;;;4879401;29;20041;-58
2023/01/05 12:54:04;;;;;;;11.50;2.67;;;;;;;;;;4864272;29;20163;-58
2023/01/05 12:56:32;;;;;;;23.85;3.15;;;;;;;;;;4853415;29;20041;-58
2023/01/05 12:59:01;;;;;;;15.85;2.75;;;;;;;;;;4847157;29;20056;-58
2023/01/05 13:01:27;;;;;;;22.88;3.97;;;;;;;;;;4848496;29;20473;-58
2023/01/05 13:03:53;;;;;;;23.80;3.75;;;;;;;;;;4848116;29;20348;-58
2023/01/05 13:06:20;;;;;;;18.45;2.67;;;;;;;;;;4848148;29;20089;-59
2023/01/05 13:08:52;;;;;;;16.92;2.75;;;;;;;;;;4848023;29;20351;-59
2023/01/05 13:11:17;;;;;;;17.02;2.92;;;;;;;;;;4879342;29;20083;-59
2023/01/05 13:13:45;;;;;;;18.48;3.28;;;;;;;;;;4846851;29;20989;-59
2023/01/05 13:16:20;;;;;;;16.33;2.70;;;;;;;;;;4845990;29;20124;-59
2023/01/05 13:18:51;;;;;;;16.67;3.25;;;;;;;;;;4847176;29;20037;-58
2023/01/05 13:21:17;;;;;;;15.38;2.90;;;;;;;;;;4848265;29;20049;-58
2023/01/05 13:23:44;;;;;;;17.38;3.22;;;;;;;;;;4847497;29;20042;-59
2023/01/05 13:26:13;;;;;;;18.95;3.17;;;;;;;;;;4847636;29;20036;-59
2023/01/05 13:28:38;;;;;;;25.58;3.78;;;;;;;;;;4848305;29;20038;-59
2023/01/05 13:31:16;;;;;;;15.00;2.83;;;;;;;;;;4877853;29;20032;-58
2023/01/05 13:33:57;;;;;;;15.23;2.90;;;;;;;;;;4847160;29;20282;-58
2023/01/05 13:36:41;;;;;;;19.08;3.42;;;;;;;;;;4847513;29;20042;-58
2023/01/05 13:39:25;;;;;;;17.15;3.72;;;;;;;;;;4849981;29;20445;-57
2023/01/05 13:41:56;;;;;;;21.17;3.13;;;;;;;;;;4847671;29;20127;-59
2023/01/05 13:44:31;;;;;;;17.23;3.83;;;;;;;;;;4847695;29;20044;-59
2023/01/05 13:47:02;;;;;;;19.27;2.97;;;;;;;-144.31;79.30;44019.44;5049527;28;20400;-60
2023/01/05 13:49:45;;;;;;;18.77;3.55;;;;;;;-144.31;78.90;44033.31;5047439;28;20056;-59
2023/01/05 13:52:38;;;;;;;20.60;3.13;;;;;;;-144.31;79.54;43956.03;5044240;28;20045;-59
2023/01/05 13:55:11;;;;;;;14.52;3.20;;;;;;;-144.31;79.54;43956.03;5048187;28;20046;-60
2023/01/05 13:57:37;;;;;;;21.30;3.10;;;;;;;;;;5044588;28;20095;-59
2023/01/05 14:00:07;;;;;;;12.27;3.20;;;;;;;-144.31;100.00;58022.63;5044992;28;20033;-58
2023/01/05 14:02:42;;;;;;;15.70;3.08;;;;;;;-144.31;100.00;58022.63;5046452;28;20041;-59
2023/01/05 14:05:30;;;;;;;15.65;3.17;;;;;;;-144.31;79.54;43955.81;5045555;28;20046;-59
2023/01/05 14:07:58;;;;;;;18.00;3.38;;;;;;;-144.31;100.00;58022.63;5053217;28;20076;-59
2023/01/05 14:10:29;;;;;;;14.00;2.70;;;;;;;-144.31;79.54;43956.03;5043345;28;20029;-59
2023/01/05 14:12:56;;;;;;;17.40;3.05;;;;;;;-144.31;100.00;58022.63;5048806;28;20041;-58
2023/01/05 14:15:41;;;;;;;20.38;3.30;;;;;;;;;;5056324;28;20033;-59
2023/01/05 14:18:11;;;;;;;20.95;3.97;;;;;;;-144.31;100.00;58022.63;5055358;28;20036;-58
2023/01/05 14:20:47;;;;;;;13.65;3.25;;;;;;;-144.31;100.00;58022.63;5044194;28;20065;-59
2023/01/05 14:23:22;;;;;;;18.35;3.58;;;;;;;-144.31;100.00;58022.63;5048602;28;20043;-58
2023/01/05 14:25:47;;;;;;;14.18;2.97;;;;;;;-144.31;100.00;58022.63;5050564;28;20047;-59
2023/01/05 14:28:20;;;;;;;14.45;3.55;;;;;;;-144.31;100.00;58022.63;5054346;28;20139;-58
2023/01/05 14:30:48;;;;;;;18.90;4.30;;;;;;;-144.31;100.00;58022.63;5027475;28;20116;-59
2023/01/05 14:33:17;;;;;;;12.35;3.30;;;;;;;-144.31;100.00;58022.63;5049111;28;20048;-60
2023/01/05 14:35:43;;;;;;;16.33;3.20;;;;;;;-144.31;100.00;58022.63;5053410;28;20047;-59
2023/01/05 14:38:23;;;;;;;19.27;3.78;;;;;;;-144.31;100.00;58022.63;5051381;28;20040;-59
2023/01/05 14:40:54;;;;;;;21.58;4.18;;;;;;;-144.31;100.00;58022.63;5055829;28;20056;-59
2023/01/05 14:43:28;;;;;;;18.77;3.42;;;;;;;-144.31;100.00;58022.63;5044998;28;20087;-58
2023/01/05 14:46:02;;;;;;;16.95;3.63;;;;;;;-144.31;100.00;58022.63;5047358;28;20041;-60
2023/01/05 14:48:31;;;;;;;14.35;3.30;;;;;;;-144.31;100.00;58022.63;5050926;28;20041;-60
2023/01/05 14:51:15;;;;;;;15.52;3.72;;;;;;;-144.31;100.00;58022.63;5048482;28;20032;-60
2023/01/05 14:53:46;;;;;;;14.77;3.30;;;;;;;-144.31;100.00;58022.63;5047894;28;20033;-59
2023/01/05 14:56:24;;;;;;;15.80;3.67;;;;;;;-144.31;100.00;58022.63;5049822;28;20122;-59